Airport ID:CYTF
Update Time (UTC):21/04/2021 19:20
Wind Speed (Knots):8
Wind Direction (Magnetic):340
Temperature (°C):-0.4
Dew Point (°C):-12.8
Humidity (%):40
Altimeter (inHg):29.78
Density Altitude (Feet):\\\\
Visibility (Miles):6
Clouds (Hundreds of feet):FEW045 FEW110
Present Weather:
METAR:METAR CYTF 211930Z AUTO 31009KT 10SM FEW045 FEW110 M00/M13 A2978

The data displayed is for advisory purposes only and is not to be used for flight planning or operations.

This page is not automatically refreshed. Reload the page to see current data.